sensor_id;sensor_type;location;lat;lon;timestamp;P1;durP1;ratioP1;P2;durP2;ratioP2
20988;SDS011;10653;47.052;15.410;2022-10-19T00:00:21;25.67;;;20.67;;
20988;SDS011;10653;47.052;15.410;2022-10-19T00:02:47;26.13;;;20.07;;
20988;SDS011;10653;47.052;15.410;2022-10-19T00:05:13;22.53;;;19.27;;
20988;SDS011;10653;47.052;15.410;2022-10-19T00:07:39;26.53;;;19.07;;
20988;SDS011;10653;47.052;15.410;2022-10-19T00:10:05;25.97;;;21.07;;
20988;SDS011;10653;47.052;15.410;2022-10-19T00:12:31;26.40;;;20.13;;
20988;SDS011;10653;47.052;15.410;2022-10-19T00:14:57;22.23;;;19.83;;
20988;SDS011;10653;47.052;15.410;2022-10-19T00:17:23;24.10;;;19.67;;
20988;SDS011;10653;47.052;15.410;2022-10-19T00:19:49;21.80;;;19.30;;
20988;SDS011;10653;47.052;15.410;2022-10-19T00:22:15;25.13;;;21.10;;
20988;SDS011;10653;47.052;15.410;2022-10-19T00:24:41;28.83;;;20.80;;
20988;SDS011;10653;47.052;15.410;2022-10-19T00:27:07;27.30;;;21.33;;
20988;SDS011;10653;47.052;15.410;2022-10-19T00:29:33;26.63;;;20.10;;
20988;SDS011;10653;47.052;15.410;2022-10-19T00:31:59;25.00;;;20.10;;
20988;SDS011;10653;47.052;15.410;2022-10-19T00:34:25;24.23;;;19.43;;
20988;SDS011;10653;47.052;15.410;2022-10-19T00:36:51;22.00;;;19.57;;
20988;SDS011;10653;47.052;15.410;2022-10-19T00:39:18;24.80;;;19.90;;
20988;SDS011;10653;47.052;15.410;2022-10-19T00:41:44;25.77;;;19.73;;
20988;SDS011;10653;47.052;15.410;2022-10-19T00:46:41;24.70;;;21.20;;
20988;SDS011;10653;47.052;15.410;2022-10-19T00:51:36;24.13;;;19.90;;
20988;SDS011;10653;47.052;15.410;2022-10-19T00:54:04;22.77;;;19.10;;
20988;SDS011;10653;47.052;15.410;2022-10-19T00:56:31;25.70;;;21.17;;
20988;SDS011;10653;47.052;15.410;2022-10-19T00:58:58;26.13;;;20.50;;
20988;SDS011;10653;47.052;15.410;2022-10-19T01:01:24;24.03;;;21.20;;
20988;SDS011;10653;47.052;15.410;2022-10-19T01:03:51;23.40;;;19.93;;
20988;SDS011;10653;47.052;15.410;2022-10-19T01:06:17;27.13;;;21.23;;
20988;SDS011;10653;47.052;15.410;2022-10-19T01:08:44;28.07;;;21.90;;
20988;SDS011;10653;47.052;15.410;2022-10-19T01:13:58;24.53;;;20.50;;
20988;SDS011;10653;47.052;15.410;2022-10-19T01:21:41;24.67;;;19.73;;
20988;SDS011;10653;47.052;15.410;2022-10-19T01:24:16;25.73;;;21.00;;
20988;SDS011;10653;47.052;15.410;2022-10-19T01:29:17;24.43;;;19.20;;
20988;SDS011;10653;47.052;15.410;2022-10-19T01:34:13;25.77;;;19.53;;
20988;SDS011;10653;47.052;15.410;2022-10-19T01:44:19;28.43;;;21.20;;
20988;SDS011;10653;47.052;15.410;2022-10-19T01:46:48;27.83;;;20.20;;
20988;SDS011;10653;47.052;15.410;2022-10-19T01:52:03;24.30;;;20.77;;
20988;SDS011;10653;47.052;15.410;2022-10-19T01:54:31;26.63;;;21.53;;
20988;SDS011;10653;47.052;15.410;2022-10-19T01:56:59;25.70;;;21.23;;
20988;SDS011;10653;47.052;15.410;2022-10-19T01:59:27;22.57;;;19.80;;
20988;SDS011;10653;47.052;15.410;2022-10-19T02:01:53;23.27;;;19.40;;
20988;SDS011;10653;47.052;15.410;2022-10-19T02:04:20;23.83;;;20.20;;
20988;SDS011;10653;47.052;15.410;2022-10-19T02:06:49;24.43;;;19.60;;
20988;SDS011;10653;47.052;15.410;2022-10-19T02:09:15;25.07;;;21.10;;
20988;SDS011;10653;47.052;15.410;2022-10-19T02:11:44;25.90;;;20.07;;
20988;SDS011;10653;47.052;15.410;2022-10-19T02:14:11;22.20;;;19.80;;
20988;SDS011;10653;47.052;15.410;2022-10-19T02:16:39;23.47;;;21.03;;
20988;SDS011;10653;47.052;15.410;2022-10-19T02:19:08;22.87;;;20.17;;
20988;SDS011;10653;47.052;15.410;2022-10-19T02:21:35;26.00;;;22.30;;
20988;SDS011;10653;47.052;15.410;2022-10-19T02:24:01;24.93;;;20.63;;
20988;SDS011;10653;47.052;15.410;2022-10-19T02:26:27;26.70;;;22.07;;
20988;SDS011;10653;47.052;15.410;2022-10-19T02:28:53;27.20;;;20.40;;
20988;SDS011;10653;47.052;15.410;2022-10-19T02:31:20;22.27;;;19.47;;
20988;SDS011;10653;47.052;15.410;2022-10-19T02:33:46;25.67;;;21.50;;
20988;SDS011;10653;47.052;15.410;2022-10-19T02:36:12;24.10;;;18.80;;
20988;SDS011;10653;47.052;15.410;2022-10-19T02:38:39;26.80;;;19.23;;
20988;SDS011;10653;47.052;15.410;2022-10-19T02:43:33;23.10;;;19.53;;
20988;SDS011;10653;47.052;15.410;2022-10-19T02:46:01;26.60;;;21.00;;
20988;SDS011;10653;47.052;15.410;2022-10-19T02:48:30;26.00;;;19.63;;
20988;SDS011;10653;47.052;15.410;2022-10-19T02:50:57;24.60;;;19.77;;
20988;SDS011;10653;47.052;15.410;2022-10-19T02:53:23;22.20;;;19.80;;
20988;SDS011;10653;47.052;15.410;2022-10-19T02:55:49;22.30;;;19.90;;
20988;SDS011;10653;47.052;15.410;2022-10-19T02:58:16;22.63;;;18.97;;
20988;SDS011;10653;47.052;15.410;2022-10-19T03:00:42;25.97;;;20.20;;
20988;SDS011;10653;47.052;15.410;2022-10-19T03:03:08;25.80;;;20.00;;
20988;SDS011;10653;47.052;15.410;2022-10-19T03:05:34;23.17;;;19.17;;
20988;SDS011;10653;47.052;15.410;2022-10-19T03:08:00;22.73;;;20.30;;
20988;SDS011;10653;47.052;15.410;2022-10-19T03:10:26;26.03;;;19.73;;
20988;SDS011;10653;47.052;15.410;2022-10-19T03:12:52;24.23;;;20.27;;
20988;SDS011;10653;47.052;15.410;2022-10-19T03:15:18;25.73;;;19.73;;
20988;SDS011;10653;47.052;15.410;2022-10-19T03:17:44;26.30;;;20.57;;
20988;SDS011;10653;47.052;15.410;2022-10-19T03:20:10;22.57;;;19.77;;
20988;SDS011;10653;47.052;15.410;2022-10-19T03:22:36;26.53;;;20.50;;
20988;SDS011;10653;47.052;15.410;2022-10-19T03:25:03;26.37;;;20.20;;
20988;SDS011;10653;47.052;15.410;2022-10-19T03:27:29;22.03;;;18.60;;
20988;SDS011;10653;47.052;15.410;2022-10-19T03:29:55;25.90;;;21.00;;
20988;SDS011;10653;47.052;15.410;2022-10-19T03:32:21;23.50;;;19.77;;
20988;SDS011;10653;47.052;15.410;2022-10-19T03:34:47;23.73;;;18.90;;
20988;SDS011;10653;47.052;15.410;2022-10-19T03:37:13;23.80;;;19.00;;
20988;SDS011;10653;47.052;15.410;2022-10-19T03:39:39;20.40;;;17.77;;
20988;SDS011;10653;47.052;15.410;2022-10-19T03:42:05;23.70;;;19.23;;
20988;SDS011;10653;47.052;15.410;2022-10-19T03:44:31;20.77;;;17.80;;
20988;SDS011;10653;47.052;15.410;2022-10-19T03:46:57;24.90;;;18.33;;
20988;SDS011;10653;47.052;15.410;2022-10-19T03:49:23;22.70;;;20.33;;
20988;SDS011;10653;47.052;15.410;2022-10-19T03:51:49;23.40;;;19.10;;
20988;SDS011;10653;47.052;15.410;2022-10-19T03:54:15;25.90;;;20.13;;
20988;SDS011;10653;47.052;15.410;2022-10-19T03:56:41;22.93;;;19.30;;
20988;SDS011;10653;47.052;15.410;2022-10-19T03:59:09;22.30;;;17.80;;
20988;SDS011;10653;47.052;15.410;2022-10-19T04:01:37;24.23;;;19.57;;
20988;SDS011;10653;47.052;15.410;2022-10-19T04:04:05;21.63;;;19.00;;
20988;SDS011;10653;47.052;15.410;2022-10-19T04:06:35;23.27;;;19.03;;
20988;SDS011;10653;47.052;15.410;2022-10-19T04:09:02;21.63;;;19.33;;
20988;SDS011;10653;47.052;15.410;2022-10-19T04:11:29;32.00;;;20.97;;
20988;SDS011;10653;47.052;15.410;2022-10-19T04:13:56;25.27;;;21.73;;
20988;SDS011;10653;47.052;15.410;2022-10-19T04:16:22;28.30;;;23.03;;
20988;SDS011;10653;47.052;15.410;2022-10-19T04:18:48;28.40;;;22.97;;
20988;SDS011;10653;47.052;15.410;2022-10-19T04:21:19;29.73;;;22.87;;
20988;SDS011;10653;47.052;15.410;2022-10-19T04:23:45;30.63;;;22.90;;
20988;SDS011;10653;47.052;15.410;2022-10-19T04:26:11;26.90;;;22.70;;
20988;SDS011;10653;47.052;15.410;2022-10-19T04:28:37;29.87;;;22.93;;
20988;SDS011;10653;47.052;15.410;2022-10-19T04:31:04;26.33;;;22.23;;
20988;SDS011;10653;47.052;15.410;2022-10-19T04:33:30;25.77;;;23.07;;
20988;SDS011;10653;47.052;15.410;2022-10-19T04:35:57;29.23;;;23.27;;
20988;SDS011;10653;47.052;15.410;2022-10-19T04:38:23;29.43;;;20.90;;
20988;SDS011;10653;47.052;15.410;2022-10-19T04:40:49;27.43;;;21.37;;
20988;SDS011;10653;47.052;15.410;2022-10-19T04:43:16;23.87;;;20.07;;
20988;SDS011;10653;47.052;15.410;2022-10-19T04:45:42;28.70;;;22.77;;
20988;SDS011;10653;47.052;15.410;2022-10-19T04:48:08;23.90;;;19.77;;
20988;SDS011;10653;47.052;15.410;2022-10-19T04:50:34;28.60;;;21.77;;
20988;SDS011;10653;47.052;15.410;2022-10-19T04:53:00;25.70;;;20.47;;
20988;SDS011;10653;47.052;15.410;2022-10-19T04:55:26;24.07;;;20.60;;
20988;SDS011;10653;47.052;15.410;2022-10-19T04:57:52;27.77;;;20.67;;
20988;SDS011;10653;47.052;15.410;2022-10-19T05:00:18;28.43;;;19.70;;
20988;SDS011;10653;47.052;15.410;2022-10-19T05:02:44;24.60;;;19.57;;
20988;SDS011;10653;47.052;15.410;2022-10-19T05:05:11;21.23;;;16.90;;
20988;SDS011;10653;47.052;15.410;2022-10-19T05:07:37;22.40;;;19.27;;
20988;SDS011;10653;47.052;15.410;2022-10-19T05:10:03;24.20;;;19.33;;
20988;SDS011;10653;47.052;15.410;2022-10-19T05:12:29;21.83;;;16.90;;
20988;SDS011;10653;47.052;15.410;2022-10-19T05:14:55;20.50;;;16.50;;
20988;SDS011;10653;47.052;15.410;2022-10-19T05:17:21;23.63;;;16.53;;
20988;SDS011;10653;47.052;15.410;2022-10-19T05:19:47;17.87;;;15.97;;
20988;SDS011;10653;47.052;15.410;2022-10-19T05:22:13;19.47;;;16.80;;
20988;SDS011;10653;47.052;15.410;2022-10-19T05:24:39;19.07;;;16.90;;
20988;SDS011;10653;47.052;15.410;2022-10-19T05:27:05;24.47;;;16.73;;
20988;SDS011;10653;47.052;15.410;2022-10-19T05:29:31;18.37;;;15.37;;
20988;SDS011;10653;47.052;15.410;2022-10-19T05:31:58;20.77;;;15.80;;
20988;SDS011;10653;47.052;15.410;2022-10-19T05:34:24;22.97;;;19.00;;
20988;SDS011;10653;47.052;15.410;2022-10-19T05:36:49;20.40;;;17.33;;
20988;SDS011;10653;47.052;15.410;2022-10-19T05:39:16;24.60;;;18.27;;
20988;SDS011;10653;47.052;15.410;2022-10-19T05:41:43;23.00;;;17.27;;
20988;SDS011;10653;47.052;15.410;2022-10-19T05:44:12;21.33;;;16.93;;
20988;SDS011;10653;47.052;15.410;2022-10-19T05:46:38;19.00;;;15.93;;
20988;SDS011;10653;47.052;15.410;2022-10-19T05:49:04;22.17;;;17.53;;
20988;SDS011;10653;47.052;15.410;2022-10-19T05:51:30;21.37;;;16.63;;
20988;SDS011;10653;47.052;15.410;2022-10-19T05:53:56;19.10;;;16.10;;
20988;SDS011;10653;47.052;15.410;2022-10-19T05:56:24;25.30;;;16.83;;
20988;SDS011;10653;47.052;15.410;2022-10-19T05:58:50;22.20;;;17.40;;
20988;SDS011;10653;47.052;15.410;2022-10-19T06:01:17;22.80;;;16.23;;
20988;SDS011;10653;47.052;15.410;2022-10-19T06:03:43;19.40;;;15.33;;
20988;SDS011;10653;47.052;15.410;2022-10-19T06:06:09;22.23;;;17.63;;
20988;SDS011;10653;47.052;15.410;2022-10-19T06:08:36;23.37;;;17.83;;
20988;SDS011;10653;47.052;15.410;2022-10-19T06:11:07;19.23;;;15.77;;
20988;SDS011;10653;47.052;15.410;2022-10-19T06:13:33;18.50;;;16.47;;
20988;SDS011;10653;47.052;15.410;2022-10-19T06:15:59;22.07;;;15.70;;
20988;SDS011;10653;47.052;15.410;2022-10-19T06:18:25;22.43;;;16.10;;
20988;SDS011;10653;47.052;15.410;2022-10-19T06:20:52;17.30;;;15.50;;
20988;SDS011;10653;47.052;15.410;2022-10-19T06:23:18;22.00;;;17.50;;
20988;SDS011;10653;47.052;15.410;2022-10-19T06:25:44;25.70;;;14.87;;
20988;SDS011;10653;47.052;15.410;2022-10-19T06:28:10;22.57;;;15.57;;
20988;SDS011;10653;47.052;15.410;2022-10-19T06:30:39;22.83;;;14.77;;
20988;SDS011;10653;47.052;15.410;2022-10-19T06:33:06;19.90;;;16.20;;
20988;SDS011;10653;47.052;15.410;2022-10-19T06:35:32;20.83;;;15.37;;
20988;SDS011;10653;47.052;15.410;2022-10-19T06:37:58;19.20;;;14.87;;
20988;SDS011;10653;47.052;15.410;2022-10-19T06:40:24;21.23;;;16.03;;
20988;SDS011;10653;47.052;15.410;2022-10-19T06:42:50;20.60;;;14.00;;
20988;SDS011;10653;47.052;15.410;2022-10-19T06:45:17;19.10;;;13.90;;
20988;SDS011;10653;47.052;15.410;2022-10-19T06:47:43;17.73;;;14.47;;
20988;SDS011;10653;47.052;15.410;2022-10-19T06:50:09;18.27;;;14.53;;
20988;SDS011;10653;47.052;15.410;2022-10-19T06:52:35;18.60;;;16.20;;
20988;SDS011;10653;47.052;15.410;2022-10-19T06:55:01;21.13;;;15.10;;
20988;SDS011;10653;47.052;15.410;2022-10-19T06:57:27;22.73;;;16.83;;
20988;SDS011;10653;47.052;15.410;2022-10-19T06:59:54;21.87;;;16.23;;
20988;SDS011;10653;47.052;15.410;2022-10-19T07:02:20;22.47;;;18.63;;
20988;SDS011;10653;47.052;15.410;2022-10-19T07:04:46;23.77;;;17.07;;
20988;SDS011;10653;47.052;15.410;2022-10-19T07:07:12;27.10;;;19.47;;
20988;SDS011;10653;47.052;15.410;2022-10-19T07:09:38;28.97;;;20.40;;
20988;SDS011;10653;47.052;15.410;2022-10-19T07:12:04;25.53;;;19.83;;
20988;SDS011;10653;47.052;15.410;2022-10-19T07:14:30;24.63;;;18.53;;
20988;SDS011;10653;47.052;15.410;2022-10-19T07:17:02;28.13;;;19.57;;
20988;SDS011;10653;47.052;15.410;2022-10-19T07:19:28;27.07;;;20.53;;
20988;SDS011;10653;47.052;15.410;2022-10-19T07:21:54;25.17;;;20.07;;
20988;SDS011;10653;47.052;15.410;2022-10-19T07:24:21;29.07;;;20.70;;
20988;SDS011;10653;47.052;15.410;2022-10-19T07:26:47;31.30;;;22.20;;
20988;SDS011;10653;47.052;15.410;2022-10-19T07:29:13;25.93;;;20.63;;
20988;SDS011;10653;47.052;15.410;2022-10-19T07:31:39;24.50;;;20.17;;
20988;SDS011;10653;47.052;15.410;2022-10-19T07:34:05;28.47;;;23.13;;
20988;SDS011;10653;47.052;15.410;2022-10-19T07:36:32;32.43;;;24.70;;
20988;SDS011;10653;47.052;15.410;2022-10-19T07:39:02;32.30;;;24.20;;
20988;SDS011;10653;47.052;15.410;2022-10-19T07:41:29;27.23;;;22.27;;
20988;SDS011;10653;47.052;15.410;2022-10-19T07:43:55;28.83;;;21.97;;
20988;SDS011;10653;47.052;15.410;2022-10-19T07:46:23;25.23;;;22.10;;
20988;SDS011;10653;47.052;15.410;2022-10-19T07:48:50;31.10;;;22.70;;
20988;SDS011;10653;47.052;15.410;2022-10-19T07:51:17;27.63;;;21.70;;
20988;SDS011;10653;47.052;15.410;2022-10-19T07:53:43;24.37;;;19.93;;
20988;SDS011;10653;47.052;15.410;2022-10-19T07:56:10;22.77;;;20.27;;
20988;SDS011;10653;47.052;15.410;2022-10-19T07:58:36;25.30;;;19.10;;
20988;SDS011;10653;47.052;15.410;2022-10-19T08:01:06;21.23;;;17.63;;
20988;SDS011;10653;47.052;15.410;2022-10-19T08:03:33;23.37;;;18.07;;
20988;SDS011;10653;47.052;15.410;2022-10-19T08:06:03;19.07;;;16.00;;
20988;SDS011;10653;47.052;15.410;2022-10-19T08:08:29;17.23;;;14.60;;
20988;SDS011;10653;47.052;15.410;2022-10-19T08:10:55;18.97;;;14.73;;
20988;SDS011;10653;47.052;15.410;2022-10-19T08:13:21;17.17;;;14.67;;
20988;SDS011;10653;47.052;15.410;2022-10-19T08:15:47;16.23;;;13.40;;
20988;SDS011;10653;47.052;15.410;2022-10-19T08:18:13;18.10;;;13.80;;
20988;SDS011;10653;47.052;15.410;2022-10-19T08:20:41;19.20;;;14.80;;
20988;SDS011;10653;47.052;15.410;2022-10-19T08:23:07;13.97;;;12.57;;
20988;SDS011;10653;47.052;15.410;2022-10-19T08:25:33;15.33;;;12.63;;
20988;SDS011;10653;47.052;15.410;2022-10-19T08:27:59;15.80;;;12.20;;
20988;SDS011;10653;47.052;15.410;2022-10-19T08:30:25;15.30;;;12.07;;
20988;SDS011;10653;47.052;15.410;2022-10-19T08:32:51;20.07;;;12.30;;
20988;SDS011;10653;47.052;15.410;2022-10-19T08:35:17;14.47;;;12.30;;
20988;SDS011;10653;47.052;15.410;2022-10-19T08:37:43;13.87;;;10.60;;
20988;SDS011;10653;47.052;15.410;2022-10-19T08:40:16;13.93;;;10.80;;
20988;SDS011;10653;47.052;15.410;2022-10-19T08:42:46;13.30;;;10.80;;
20988;SDS011;10653;47.052;15.410;2022-10-19T08:47:54;13.40;;;10.67;;
20988;SDS011;10653;47.052;15.410;2022-10-19T08:50:24;16.93;;;11.37;;
20988;SDS011;10653;47.052;15.410;2022-10-19T08:52:59;11.10;;;9.97;;
20988;SDS011;10653;47.052;15.410;2022-10-19T08:55:48;11.20;;;9.90;;
20988;SDS011;10653;47.052;15.410;2022-10-19T09:00:54;12.60;;;10.90;;
20988;SDS011;10653;47.052;15.410;2022-10-19T09:03:25;11.60;;;9.70;;
20988;SDS011;10653;47.052;15.410;2022-10-19T09:06:00;10.87;;;9.73;;
20988;SDS011;10653;47.052;15.410;2022-10-19T09:08:28;12.57;;;10.97;;
20988;SDS011;10653;47.052;15.410;2022-10-19T09:10:55;10.50;;;8.97;;
20988;SDS011;10653;47.052;15.410;2022-10-19T09:15:56;13.70;;;10.63;;
20988;SDS011;10653;47.052;15.410;2022-10-19T09:18:24;10.73;;;9.63;;
20988;SDS011;10653;47.052;15.410;2022-10-19T09:20:54;11.00;;;9.80;;
20988;SDS011;10653;47.052;15.410;2022-10-19T09:25:49;9.13;;;8.23;;
20988;SDS011;10653;47.052;15.410;2022-10-19T09:30:41;10.10;;;9.07;;
20988;SDS011;10653;47.052;15.410;2022-10-19T09:33:11;11.00;;;9.10;;
20988;SDS011;10653;47.052;15.410;2022-10-19T09:35:42;11.00;;;9.07;;
20988;SDS011;10653;47.052;15.410;2022-10-19T09:38:09;10.77;;;9.27;;
20988;SDS011;10653;47.052;15.410;2022-10-19T09:40:36;10.07;;;8.97;;
20988;SDS011;10653;47.052;15.410;2022-10-19T09:43:05;15.07;;;10.00;;
20988;SDS011;10653;47.052;15.410;2022-10-19T09:45:53;14.30;;;10.00;;
20988;SDS011;10653;47.052;15.410;2022-10-19T09:50:50;11.03;;;8.30;;
20988;SDS011;10653;47.052;15.410;2022-10-19T09:53:19;10.17;;;8.20;;
20988;SDS011;10653;47.052;15.410;2022-10-19T09:58:35;13.50;;;9.57;;
20988;SDS011;10653;47.052;15.410;2022-10-19T10:01:01;9.80;;;8.80;;
20988;SDS011;10653;47.052;15.410;2022-10-19T10:06:12;8.03;;;7.27;;
20988;SDS011;10653;47.052;15.410;2022-10-19T10:08:48;11.40;;;8.83;;
20988;SDS011;10653;47.052;15.410;2022-10-19T10:11:23;11.27;;;9.50;;
20988;SDS011;10653;47.052;15.410;2022-10-19T10:13:50;11.17;;;9.47;;
20988;SDS011;10653;47.052;15.410;2022-10-19T10:16:18;11.90;;;9.30;;
20988;SDS011;10653;47.052;15.410;2022-10-19T10:26:27;15.67;;;10.17;;
20988;SDS011;10653;47.052;15.410;2022-10-19T10:28:53;11.03;;;8.70;;
20988;SDS011;10653;47.052;15.410;2022-10-19T10:31:23;9.83;;;8.83;;
20988;SDS011;10653;47.052;15.410;2022-10-19T10:33:57;12.30;;;9.20;;
20988;SDS011;10653;47.052;15.410;2022-10-19T10:36:26;11.30;;;9.30;;
20988;SDS011;10653;47.052;15.410;2022-10-19T10:38:53;12.30;;;9.10;;
20988;SDS011;10653;47.052;15.410;2022-10-19T10:41:22;10.57;;;8.50;;
20988;SDS011;10653;47.052;15.410;2022-10-19T10:44:34;10.83;;;8.87;;
20988;SDS011;10653;47.052;15.410;2022-10-19T10:46:36;12.60;;;9.83;;
20988;SDS011;10653;47.052;15.410;2022-10-19T10:49:05;9.63;;;8.60;;
20988;SDS011;10653;47.052;15.410;2022-10-19T10:51:39;10.87;;;9.73;;
20988;SDS011;10653;47.052;15.410;2022-10-19T10:56:34;9.80;;;8.83;;
20988;SDS011;10653;47.052;15.410;2022-10-19T10:59:05;11.03;;;9.97;;
20988;SDS011;10653;47.052;15.410;2022-10-19T11:01:39;11.63;;;10.33;;
20988;SDS011;10653;47.052;15.410;2022-10-19T11:04:13;10.33;;;9.37;;
20988;SDS011;10653;47.052;15.410;2022-10-19T11:06:42;11.33;;;10.23;;
20988;SDS011;10653;47.052;15.410;2022-10-19T11:09:12;10.57;;;9.47;;
20988;SDS011;10653;47.052;15.410;2022-10-19T11:11:42;8.87;;;8.07;;
20988;SDS011;10653;47.052;15.410;2022-10-19T11:16:55;10.13;;;9.23;;
20988;SDS011;10653;47.052;15.410;2022-10-19T11:19:24;14.00;;;9.63;;
20988;SDS011;10653;47.052;15.410;2022-10-19T11:24:46;10.10;;;9.20;;
20988;SDS011;10653;47.052;15.410;2022-10-19T11:29:51;9.83;;;8.83;;
20988;SDS011;10653;47.052;15.410;2022-10-19T11:32:22;9.80;;;8.80;;
20988;SDS011;10653;47.052;15.410;2022-10-19T11:37:28;10.60;;;9.63;;
20988;SDS011;10653;47.052;15.410;2022-10-19T11:40:07;10.90;;;9.77;;
20988;SDS011;10653;47.052;15.410;2022-10-19T11:42:44;11.90;;;9.37;;
20988;SDS011;10653;47.052;15.410;2022-10-19T11:45:14;10.20;;;9.20;;
20988;SDS011;10653;47.052;15.410;2022-10-19T11:47:57;15.53;;;9.67;;
20988;SDS011;10653;47.052;15.410;2022-10-19T11:55:46;28.47;;;22.47;;
20988;SDS011;10653;47.052;15.410;2022-10-19T12:00:59;39.70;;;26.10;;
20988;SDS011;10653;47.052;15.410;2022-10-19T12:08:32;13.00;;;9.73;;
20988;SDS011;10653;47.052;15.410;2022-10-19T12:11:05;9.27;;;7.80;;
20988;SDS011;10653;47.052;15.410;2022-10-19T12:13:41;9.57;;;8.70;;
20988;SDS011;10653;47.052;15.410;2022-10-19T12:16:09;8.17;;;7.30;;
20988;SDS011;10653;47.052;15.410;2022-10-19T12:18:45;9.07;;;6.97;;
20988;SDS011;10653;47.052;15.410;2022-10-19T12:21:21;8.37;;;7.57;;
20988;SDS011;10653;47.052;15.410;2022-10-19T12:23:47;7.60;;;6.90;;
20988;SDS011;10653;47.052;15.410;2022-10-19T12:26:14;7.70;;;6.67;;
20988;SDS011;10653;47.052;15.410;2022-10-19T12:28:42;7.97;;;7.27;;
20988;SDS011;10653;47.052;15.410;2022-10-19T12:31:11;7.23;;;6.50;;
20988;SDS011;10653;47.052;15.410;2022-10-19T12:33:58;7.07;;;6.40;;
20988;SDS011;10653;47.052;15.410;2022-10-19T12:38:55;6.93;;;5.70;;
20988;SDS011;10653;47.052;15.410;2022-10-19T12:43:55;6.63;;;6.03;;
20988;SDS011;10653;47.052;15.410;2022-10-19T12:51:44;5.43;;;4.90;;
20988;SDS011;10653;47.052;15.410;2022-10-19T12:54:11;5.30;;;4.50;;
20988;SDS011;10653;47.052;15.410;2022-10-19T12:56:47;6.17;;;5.60;;
20988;SDS011;10653;47.052;15.410;2022-10-19T12:59:20;4.97;;;4.57;;
20988;SDS011;10653;47.052;15.410;2022-10-19T13:01:47;5.13;;;4.70;;
20988;SDS011;10653;47.052;15.410;2022-10-19T13:04:20;5.00;;;4.60;;
20988;SDS011;10653;47.052;15.410;2022-10-19T13:06:47;6.80;;;4.50;;
20988;SDS011;10653;47.052;15.410;2022-10-19T13:09:36;5.60;;;5.10;;
20988;SDS011;10653;47.052;15.410;2022-10-19T13:22:41;5.60;;;4.40;;
20988;SDS011;10653;47.052;15.410;2022-10-19T13:36:10;5.37;;;4.87;;
20988;SDS011;10653;47.052;15.410;2022-10-19T13:43:54;5.10;;;4.60;;
20988;SDS011;10653;47.052;15.410;2022-10-19T13:49:02;5.77;;;4.70;;
20988;SDS011;10653;47.052;15.410;2022-10-19T13:59:11;7.10;;;5.90;;
20988;SDS011;10653;47.052;15.410;2022-10-19T14:06:52;8.97;;;5.33;;
20988;SDS011;10653;47.052;15.410;2022-10-19T14:12:08;5.77;;;5.27;;
20988;SDS011;10653;47.052;15.410;2022-10-19T14:14:42;6.20;;;5.30;;
20988;SDS011;10653;47.052;15.410;2022-10-19T14:17:16;6.97;;;5.23;;
20988;SDS011;10653;47.052;15.410;2022-10-19T14:19:51;6.73;;;6.10;;
20988;SDS011;10653;47.052;15.410;2022-10-19T14:24:50;5.40;;;4.90;;
20988;SDS011;10653;47.052;15.410;2022-10-19T14:27:17;8.87;;;5.90;;
20988;SDS011;10653;47.052;15.410;2022-10-19T14:29:44;6.70;;;6.07;;
20988;SDS011;10653;47.052;15.410;2022-10-19T14:32:11;6.00;;;5.40;;
20988;SDS011;10653;47.052;15.410;2022-10-19T14:34:43;8.73;;;6.00;;
20988;SDS011;10653;47.052;15.410;2022-10-19T14:37:20;6.50;;;5.90;;
20988;SDS011;10653;47.052;15.410;2022-10-19T14:42:41;7.07;;;6.37;;
20988;SDS011;10653;47.052;15.410;2022-10-19T14:45:09;9.03;;;5.83;;
20988;SDS011;10653;47.052;15.410;2022-10-19T14:47:37;6.33;;;4.80;;
20988;SDS011;10653;47.052;15.410;2022-10-19T14:50:15;5.00;;;4.50;;
20988;SDS011;10653;47.052;15.410;2022-10-19T14:52:41;7.37;;;6.10;;
20988;SDS011;10653;47.052;15.410;2022-10-19T14:55:09;5.93;;;5.20;;
20988;SDS011;10653;47.052;15.410;2022-10-19T14:57:35;6.50;;;5.67;;
20988;SDS011;10653;47.052;15.410;2022-10-19T15:00:04;6.30;;;5.70;;
20988;SDS011;10653;47.052;15.410;2022-10-19T15:02:37;9.63;;;6.33;;
20988;SDS011;10653;47.052;15.410;2022-10-19T15:05:05;6.73;;;6.13;;
20988;SDS011;10653;47.052;15.410;2022-10-19T15:07:39;7.40;;;4.93;;
20988;SDS011;10653;47.052;15.410;2022-10-19T15:10:16;6.63;;;5.93;;
20988;SDS011;10653;47.052;15.410;2022-10-19T15:12:43;5.77;;;5.17;;
20988;SDS011;10653;47.052;15.410;2022-10-19T15:15:15;5.90;;;4.80;;
20988;SDS011;10653;47.052;15.410;2022-10-19T15:17:54;9.37;;;5.20;;
20988;SDS011;10653;47.052;15.410;2022-10-19T15:20:30;6.53;;;5.90;;
20988;SDS011;10653;47.052;15.410;2022-10-19T15:22:58;5.93;;;5.33;;
20988;SDS011;10653;47.052;15.410;2022-10-19T15:25:29;7.03;;;5.63;;
20988;SDS011;10653;47.052;15.410;2022-10-19T15:27:57;5.90;;;5.30;;
20988;SDS011;10653;47.052;15.410;2022-10-19T15:30:24;6.10;;;5.43;;
20988;SDS011;10653;47.052;15.410;2022-10-19T15:35:27;5.87;;;5.00;;
20988;SDS011;10653;47.052;15.410;2022-10-19T15:40:35;4.70;;;4.27;;
20988;SDS011;10653;47.052;15.410;2022-10-19T15:43:31;7.03;;;4.87;;
20988;SDS011;10653;47.052;15.410;2022-10-19T15:45:57;6.00;;;5.40;;
20988;SDS011;10653;47.052;15.410;2022-10-19T15:48:28;5.70;;;5.10;;
20988;SDS011;10653;47.052;15.410;2022-10-19T15:50:55;5.13;;;4.63;;
20988;SDS011;10653;47.052;15.410;2022-10-19T15:53:21;5.87;;;5.27;;
20988;SDS011;10653;47.052;15.410;2022-10-19T15:55:47;5.37;;;4.73;;
20988;SDS011;10653;47.052;15.410;2022-10-19T15:58:14;5.50;;;5.00;;
20988;SDS011;10653;47.052;15.410;2022-10-19T16:00:40;5.67;;;5.17;;
20988;SDS011;10653;47.052;15.410;2022-10-19T16:03:06;6.07;;;5.40;;
20988;SDS011;10653;47.052;15.410;2022-10-19T16:05:33;6.27;;;4.87;;
20988;SDS011;10653;47.052;15.410;2022-10-19T16:08:00;8.87;;;6.20;;
20988;SDS011;10653;47.052;15.410;2022-10-19T16:10:26;5.70;;;5.20;;
20988;SDS011;10653;47.052;15.410;2022-10-19T16:12:52;6.53;;;5.53;;
20988;SDS011;10653;47.052;15.410;2022-10-19T16:15:19;5.50;;;4.63;;
20988;SDS011;10653;47.052;15.410;2022-10-19T16:17:47;4.83;;;4.43;;
20988;SDS011;10653;47.052;15.410;2022-10-19T16:20:14;6.63;;;5.80;;
20988;SDS011;10653;47.052;15.410;2022-10-19T16:22:40;5.80;;;4.80;;
20988;SDS011;10653;47.052;15.410;2022-10-19T16:25:06;6.93;;;5.67;;
20988;SDS011;10653;47.052;15.410;2022-10-19T16:27:32;5.40;;;4.90;;
20988;SDS011;10653;47.052;15.410;2022-10-19T16:29:58;6.30;;;5.50;;
20988;SDS011;10653;47.052;15.410;2022-10-19T16:32:24;6.10;;;4.83;;
20988;SDS011;10653;47.052;15.410;2022-10-19T16:34:50;7.70;;;5.90;;
20988;SDS011;10653;47.052;15.410;2022-10-19T16:37:17;6.07;;;5.17;;
20988;SDS011;10653;47.052;15.410;2022-10-19T16:39:43;7.53;;;5.63;;
20988;SDS011;10653;47.052;15.410;2022-10-19T16:42:09;6.10;;;5.50;;
20988;SDS011;10653;47.052;15.410;2022-10-19T16:44:35;7.03;;;5.23;;
20988;SDS011;10653;47.052;15.410;2022-10-19T16:47:01;6.37;;;4.50;;
20988;SDS011;10653;47.052;15.410;2022-10-19T16:49:27;9.53;;;7.80;;
20988;SDS011;10653;47.052;15.410;2022-10-19T16:51:54;6.33;;;5.30;;
20988;SDS011;10653;47.052;15.410;2022-10-19T16:54:20;5.87;;;4.50;;